EBCI - Charleroi/Gosselies, Belgium
Distance de la station: NE 18km
Mise à jour: 01/04/2020 00:50
clair
clair
 Wind from NE
Vent: NE 9 km/h
Température: 2°C
Température ressentie: -1°C
Point de rosée: -5°C
Humidité: 60%
Baromètre: 1026 hPa
Résumé: clair
Visibilité: greater than 10 km
2020/03/31 22:50 EBCI 312250Z AUTO 05005KT CAVOK 02/M05 Q1026
EBFS - Florennes, Belgium
Distance de la station: ESE 31km
Mise à jour: 01/04/2020 00:55
couvert
couvert
 Wind from NE
Vent: NE 7 km/h
Température: 2°C
Température ressentie: 0°C
Point de rosée: -6°C
Humidité: 56%
Baromètre: 1025 hPa
Ciel: couvert
Visibilité: 10 km
Détails du ciel: couvert 6706 m
2020/03/31 22:55 EBFS 312255Z AUTO 05004KT 9999 OVC220/// 02/M06 Q1025 BLU
EBCV - Chievres, Belgium
Distance de la station: NO 40km
Mise à jour: 01/04/2020 00:55
clair
clair
 Wind from NE
Vent: NE 11 km/h
Température: 1°C
Température ressentie: -2°C
Point de rosée: -4°C
Humidité: 70%
Baromètre: 1027 hPa
Ciel: clair
Visibilité: 10 km
2020/03/31 22:55 EBCV 312255Z AUTO 04006KT 9999 NCD 01/M04 Q1027 BLU
 
EBBE - Beauvechain, Belgium
Distance de la station: NE 57km
Mise à jour: 01/04/2020 00:55
clair
clair
 Wind from varies
Vent: varies 4 km/h
Température: 3°C
Point de rosée: -6°C
Humidité: 52%
Baromètre: 1026 hPa
Ciel: clair
Visibilité: 10 km
2020/03/31 22:55 EBBE 312255Z AUTO VRB02KT 9999 NCD 03/M06 Q1026 BLU
EBBR - Brussels National, Belgium
Distance de la station: NNE 63km
Mise à jour: 01/04/2020 00:50
clair
clair
 Wind from NNE
Vent: NNE 6 km/h
Température: 2°C
Point de rosée: -3°C
Humidité: 70%
Baromètre: 1027 hPa
Résumé: clair
Visibilité: greater than 10 km
2020/03/31 22:50 EBBR 312250Z 03003KT CAVOK 02/M03 Q1027 NOSIG
LFQI - Cambrai/Epinoy, France
Distance de la station: O 82km
Mise à jour: 29/06/2012 12:30
NOT Current

 Wind from SO
Vent: SO 17 km/h
Température: 18°C
Point de rosée: 14°C
Humidité: 78%
Baromètre: 1009 hPa
2012/06/29 10:30 LFQI 291030Z AUTO 22009KT //// // ///////// 18/14 Q1009
 
LFQQ - Lille/Lesquin, France
Distance de la station: ONO 86km
Mise à jour: 01/04/2020 01:00
clair
clair
 Wind from NNE
Vent: NNE 15 km/h
Température: 3°C
Température ressentie: -1°C
Point de rosée: -1°C
Humidité: 75%
Baromètre: 1026 hPa
Résumé: clair
Visibilité: greater than 10 km
2020/03/31 23:00 LFQQ 312300Z AUTO 02008KT CAVOK 03/M01 Q1026 NOSIG
EBLG - Bierset/Liege, Belgium
Distance de la station: ENE 89km
Mise à jour: 01/04/2020 00:50
clair
clair
 Wind from NNE
Vent: NNE 6 km/h
Température: 2°C
Point de rosée: -5°C
Humidité: 60%
Baromètre: 1026 hPa
Résumé: clair
Visibilité: greater than 10 km
2020/03/31 22:50 EBLG 312250Z 02003KT CAVOK 02/M05 Q1026 NOSIG
EBDT - Schaffen, Belgium
Distance de la station: NE 93km
Mise à jour: 01/04/2020 00:55
nuageux
nuageux
 Wind from N
Vent: N 9 km/h
Température: 2°C
Température ressentie: -1°C
Point de rosée: -6°C
Humidité: 56%
Baromètre: 1027 hPa
Ciel: nuageux
Visibilité: 10 km
Détails du ciel: quelques nuages 2743 m
nuageux 3048 m
nuageux 3962 m
2020/03/31 22:55 EBDT 312255Z AUTO 35005KT 9999 FEW090/// BKN100/// BKN130/// 02/M06 Q1027 BLU
 
EBAW - Antwerp/Deurne, Belgium
Distance de la station: N 96km
Mise à jour: 01/04/2020 00:50
clair
clair
 Wind from NNE
Vent: NNE 11 km/h
Température: 3°C
Température ressentie: 0°C
Point de rosée: -2°C
Humidité: 70%
Baromètre: 1027 hPa
Résumé: clair
Visibilité: greater than 10 km
2020/03/31 22:50 EBAW 312250Z AUTO 03006KT CAVOK 03/M02 Q1027
LFAQ - Bray, France
Distance de la station: OSO 119km
Mise à jour: 01/04/2020 01:00
clair
clair
 Wind from NNE
Vent: NNE 9 km/h
Température: 2°C
Température ressentie: -1°C
Point de rosée: -4°C
Humidité: 65%
Baromètre: 1026 hPa
Résumé: clair
Visibilité: greater than 10 km
2020/03/31 23:00 LFAQ 312300Z AUTO 02005KT CAVOK 02/M04 Q1026
LFSR - Reims/Champagne, France
Distance de la station: S 120km
Mise à jour: 16/04/2012 09:00
NOT Current
partiellement nuageux
partiellement nuageux
 Wind from N
Vent: N 17 km/h
Température: 4°C
Température ressentie: 0°C
Point de rosée: 0°C
Humidité: 75%
Baromètre: 1022 hPa
Ciel: partiellement nuageux
Visibilité: 10 km
2012/04/16 07:00 LFSR 160700Z AUTO 01009KT 340V070 9999 NSC 04/00 Q1022
 
EHWO - Woensdrecht, Netherlands
Distance de la station: N 122km
Mise à jour: 01/04/2020 00:55
clair
clair
 Wind from NE
Vent: NE 7 km/h
Température: 0°C
Température ressentie: -3°C
Point de rosée: -4°C
Humidité: 75%
Baromètre: 1027 hPa
Ciel: clair
Visibilité: 10 km
2020/03/31 22:55 EHWO 312255Z AUTO 04004KT 9999 NCD 00/M04 Q1027 BLU
EHBK - Zuid-Limburg, Netherlands
Distance de la station: ENE 123km
Mise à jour: 01/04/2020 00:55
clair
clair
 Wind from NE
Vent: NE 7 km/h
Température: 1°C
Température ressentie: -2°C
Point de rosée: -5°C
Humidité: 65%
Baromètre: 1026 hPa
Ciel: clair
Visibilité: 10 km
2020/03/31 22:55 EHBK 312255Z AUTO 05004KT 9999 NCD 01/M05 Q1026
EBBL - Kleine-Brogel, Belgium
Distance de la station: NE 124km
Mise à jour: 01/04/2020 00:55
clair
clair
 Wind from varies
Vent: varies 4 km/h
Température: -1°C
Point de rosée: -5°C
Humidité: 75%
Baromètre: 1027 hPa
Ciel: clair
Visibilité: 10 km
2020/03/31 22:55 EBBL 312255Z AUTO VRB02KT 9999 NCD M01/M05 Q1027 BLU
 
EBLB - Elsenborn, Belgium
Distance de la station: E 135km
Mise à jour: 01/04/2020 00:55
clair
clair
 Wind from varies
Vent: varies 4 km/h
Température: -3°C
Point de rosée: -7°C
Humidité: 74%
Baromètre: 1024 hPa
Ciel: clair
Visibilité: 10 km
2020/03/31 22:55 EBLB 312255Z AUTO VRB02KT 9999 NCD M03/M07 Q1024 BLU
EBOS - Oostende Airport, Belgium
Distance de la station: NO 136km
Mise à jour: 01/04/2020 00:50
clair
clair
 Wind from ENE
Vent: ENE 15 km/h
Température: 4°C
Température ressentie: 1°C
Point de rosée: 0°C
Humidité: 75%
Baromètre: 1028 hPa
Résumé: clair
Visibilité: greater than 10 km
2020/03/31 22:50 EBOS 312250Z 06008KT CAVOK 04/M00 Q1028 NOSIG
EBFN - Koksijde, Belgium
Distance de la station: NO 140km
Mise à jour: 01/04/2020 00:55
clair
clair
 Wind from NE
Vent: NE 11 km/h
Température: 3°C
Température ressentie: 0°C
Point de rosée: 0°C
Humidité: 81%
Baromètre: 1028 hPa
Ciel: clair
Visibilité: 10 km
2020/03/31 22:55 EBFN 312255Z AUTO 05006KT 9999 NCD 03/00 Q1028 BLU
 
ETNG - Geilenkirchen, Germany
Distance de la station: ENE 142km
Mise à jour: 01/04/2020 00:50
clair
clair
 Wind from S
Vent: S 0 km/h
Température: 0°C
Point de rosée: -5°C
Humidité: 69%
Baromètre: 1026 hPa
Résumé: clair
Visibilité: greater than 10 km
2020/03/31 22:50 ETNG 312250Z 17000KT CAVOK M00/M05 Q1026
EHGR - Gilze-Rijen, Netherlands
Distance de la station: NNE 143km
Mise à jour: 01/04/2020 00:55
clair
clair
 Wind from N
Vent: N 9 km/h
Température: 1°C
Température ressentie: -2°C
Point de rosée: -2°C
Humidité: 81%
Baromètre: 1027 hPa
Ciel: clair
Visibilité: 10 km
2020/03/31 22:55 EHGR 312255Z AUTO 01005KT 330V050 9999 NCD 01/M02 Q1027 BLU
EHEH - Eindhoven, Netherlands
Distance de la station: NNE 147km
Mise à jour: 01/04/2020 00:55
clair
clair
 Wind from N
Vent: N 7 km/h
Température: 1°C
Température ressentie: -2°C
Point de rosée: -2°C
Humidité: 81%
Baromètre: 1027 hPa
Ciel: clair
Visibilité: 10 km
2020/03/31 22:55 EHEH 312255Z AUTO 01004KT 9999 NCD 01/M02 Q1027 BLU
 
ELLX - Luxembourg, Luxembourg
Distance de la station: ESE 162km
Mise à jour: 01/04/2020 00:50
clair
clair
 Wind from NNE
Vent: NNE 13 km/h
Température: 2°C
Température ressentie: -1°C
Point de rosée: -7°C
Humidité: 52%
Baromètre: 1024 hPa
Ciel: clair
Visibilité: 10 km
2020/03/31 22:50 ELLX 312250Z AUTO 03007KT 9999 NCD 02/M07 Q1024 NOSIG
EHVK - Volkel, Netherlands
Distance de la station: NE 174km
Mise à jour: 01/04/2020 00:55
clair
clair
 Wind from N
Vent: N 9 km/h
Température: 2°C
Température ressentie: -1°C
Point de rosée: -2°C
Humidité: 75%
Baromètre: 1027 hPa
Ciel: clair
Visibilité: 10 km
2020/03/31 22:55 EHVK 312255Z AUTO 35005KT 9999 NCD 02/M02 Q1027 BLU
LFOK - Chalons/Vatry, France
Distance de la station: S 174km
Mise à jour: 01/04/2020 01:00
clair
clair
 Wind from ENE
Vent: ENE 15 km/h
Température: 2°C
Température ressentie: -2°C
Point de rosée: -4°C
Humidité: 65%
Baromètre: 1024 hPa
Résumé: clair
Visibilité: greater than 10 km
2020/03/31 23:00 LFOK 312300Z AUTO 06008KT CAVOK 02/M04 Q1024 NOSIG
Script from Saratoga-Weather.org